Shunwa — 3FIT3 — position and weather

sailwx.info

Track history (hours):
 
Tides and Currents Weather Stations Pressure Air Temp Water Temp Dewpoint Dewpoint Depression Visibility Wind Speed Wind Dir Waves Ship Positions

Shunwa

Last reported at 2017-Oct-02 05:38 UTC. Time now 2017-Nov-21 10:10 UTC.
Position N 31°03' E 032°19'.
Warning: this ship's position is 50 days out of date.

Length 169 m; draft 9.8 m.

Type: Cargo ship. MMSI: 356050000.

Date/timePositionNaut miles runAvg speedWind from/ knotsBaromVisibWave heightAir tempDewpointWater temp
2017-Oct-02 05:38N 31°03' E 032°19'2 9.4
2017-Oct-02 05:26N 31°05' E 032°19'4 9.6
2017-Oct-02 04:59N 31°09' E 032°19'4 8.5
2017-Oct-02 04:30N 31°13' E 032°21'9 1.2
2017-Oct-01 20:56N 31°22' E 032°19'0 0.0
2017-Oct-01 20:02N 31°22' E 032°19'0 0.0
2017-Oct-01 19:59N 31°22' E 032°19'0 0.0
2017-Oct-01 19:14N 31°22' E 032°19'0 0.0
2017-Oct-01 15:11N 31°22' E 032°19'0 0.0
2017-Oct-01 14:56N 31°22' E 032°19'0 0.0
2017-Oct-01 14:29N 31°22' E 032°19'  
2017-Sep-27 22:17N 35°51' E 014°50'3 8.2
2017-Sep-27 21:59N 35°52' E 014°47'0 0.3
2017-Sep-27 21:04N 35°52' E 014°46'0 0.0
2017-Sep-27 20:43N 35°52' E 014°46'0 0.0
2017-Sep-27 20:28N 35°52' E 014°46'0 0.0
2017-Sep-27 19:58N 35°52' E 014°46'0 0.0
2017-Sep-27 19:16N 35°52' E 014°46'0 0.0
2017-Sep-27 18:52N 35°52' E 014°46'0 0.0
2017-Sep-27 18:28N 35°52' E 014°46'0 0.0
2017-Sep-27 17:49N 35°52' E 014°46'0 0.0
2017-Sep-27 17:10N 35°52' E 014°46'0 0.0
2017-Sep-27 17:00N 35°52' E 014°46'0 0.0
2017-Sep-27 16:31N 35°52' E 014°46'0 0.0
2017-Sep-27 15:55N 35°52' E 014°46'0 0.0
2017-Sep-27 15:28N 35°52' E 014°46'0 0.0
2017-Sep-27 14:58N 35°52' E 014°46'0 0.0
2017-Sep-27 14:07N 35°52' E 014°46'0 0.1
2017-Sep-27 13:57N 35°52' E 014°46'0 0.0
2017-Sep-27 13:13N 35°52' E 014°46'0 0.1
2017-Sep-27 12:52N 35°53' E 014°46'0 0.0
2017-Sep-27 12:04N 35°52' E 014°46'0 0.0
2017-Sep-27 12:01N 35°52' E 014°46'0 0.0
2017-Sep-27 11:27N 35°53' E 014°46'0 0.0
2017-Sep-27 10:55N 35°52' E 014°46'0 0.2
2017-Sep-27 10:30N 35°52' E 014°46'0 0.1
2017-Sep-27 10:00N 35°52' E 014°46'0 0.0
2017-Sep-27 09:19N 35°52' E 014°46'0 0.0
2017-Sep-27 08:58N 35°52' E 014°46'0 0.0
2017-Sep-27 08:31N 35°52' E 014°46'0 0.0
2017-Sep-27 08:01N 35°52' E 014°46'4 1.1
2017-Sep-27 04:40N 35°54' E 014°42'7610.7
2017-Sep-26 21:35N 35°30' E 013°14'1612.7
2017-Sep-26 20:17N 35°20' E 012°58'  
Track history (hours):
 
Tides and Currents Weather Stations Pressure Air Temp Water Temp Dewpoint Dewpoint Depression Visibility Wind Speed Wind Dir Waves Ship Positions

Shunwa

Last reported at 2017-Oct-02 05:38 UTC. Time now 2017-Nov-21 10:10 UTC.
Position N 31°03' E 032°19'.
Warning: this ship's position is 50 days out of date.

Length 169 m; draft 9.8 m.

Type: Cargo ship. MMSI: 356050000.

Date/timePositionNaut miles runAvg speedWind from/ knotsBaromVisibWave heightAir tempDewpointWater temp
2017-Oct-02 05:38N 31°03' E 032°19'2 9.4
2017-Oct-02 05:26N 31°05' E 032°19'4 9.6
2017-Oct-02 04:59N 31°09' E 032°19'4 8.5
2017-Oct-02 04:30N 31°13' E 032°21'9 1.2
2017-Oct-01 20:56N 31°22' E 032°19'0 0.0
2017-Oct-01 20:02N 31°22' E 032°19'0 0.0
2017-Oct-01 19:59N 31°22' E 032°19'0 0.0
2017-Oct-01 19:14N 31°22' E 032°19'0 0.0
2017-Oct-01 15:11N 31°22' E 032°19'0 0.0
2017-Oct-01 14:56N 31°22' E 032°19'0 0.0
2017-Oct-01 14:29N 31°22' E 032°19'  
2017-Sep-27 22:17N 35°51' E 014°50'3 8.2
2017-Sep-27 21:59N 35°52' E 014°47'0 0.3
2017-Sep-27 21:04N 35°52' E 014°46'0 0.0
2017-Sep-27 20:43N 35°52' E 014°46'0 0.0
2017-Sep-27 20:28N 35°52' E 014°46'0 0.0
2017-Sep-27 19:58N 35°52' E 014°46'0 0.0
2017-Sep-27 19:16N 35°52' E 014°46'0 0.0
2017-Sep-27 18:52N 35°52' E 014°46'0 0.0
2017-Sep-27 18:28N 35°52' E 014°46'0 0.0
2017-Sep-27 17:49N 35°52' E 014°46'0 0.0
2017-Sep-27 17:10N 35°52' E 014°46'0 0.0
2017-Sep-27 17:00N 35°52' E 014°46'0 0.0
2017-Sep-27 16:31N 35°52' E 014°46'0 0.0
2017-Sep-27 15:55N 35°52' E 014°46'0 0.0
2017-Sep-27 15:28N 35°52' E 014°46'0 0.0
2017-Sep-27 14:58N 35°52' E 014°46'0 0.0
2017-Sep-27 14:07N 35°52' E 014°46'0 0.1
2017-Sep-27 13:57N 35°52' E 014°46'0 0.0
2017-Sep-27 13:13N 35°52' E 014°46'0 0.1
2017-Sep-27 12:52N 35°53' E 014°46'0 0.0
2017-Sep-27 12:04N 35°52' E 014°46'0 0.0
2017-Sep-27 12:01N 35°52' E 014°46'0 0.0
2017-Sep-27 11:27N 35°53' E 014°46'0 0.0
2017-Sep-27 10:55N 35°52' E 014°46'0 0.2
2017-Sep-27 10:30N 35°52' E 014°46'0 0.1
2017-Sep-27 10:00N 35°52' E 014°46'0 0.0
2017-Sep-27 09:19N 35°52' E 014°46'0 0.0
2017-Sep-27 08:58N 35°52' E 014°46'0 0.0
2017-Sep-27 08:31N 35°52' E 014°46'0 0.0
2017-Sep-27 08:01N 35°52' E 014°46'4 1.1
2017-Sep-27 04:40N 35°54' E 014°42'7610.7
2017-Sep-26 21:35N 35°30' E 013°14'1612.7
2017-Sep-26 20:17N 35°20' E 012°58'  

Dump ship's entire track history